createdAt,value
2019-04-01T00:00:10.185Z,0.00
2019-04-01T00:01:10.209Z,0.00
2019-04-01T00:02:10.194Z,0.00
2019-04-01T00:03:10.151Z,0.00
2019-04-01T00:04:10.140Z,0.00
2019-04-01T00:05:10.134Z,0.00
2019-04-01T00:06:10.121Z,0.00
2019-04-01T00:07:10.132Z,0.00
2019-04-01T00:08:10.101Z,0.00
2019-04-01T00:09:10.149Z,0.00
2019-04-01T00:10:10.079Z,0.00
2019-04-01T00:11:10.070Z,0.00
2019-04-01T00:12:10.077Z,0.00
2019-04-01T00:13:10.047Z,0.00
2019-04-01T00:14:10.044Z,0.00
2019-04-01T00:15:10.040Z,0.00
2019-04-01T00:16:10.059Z,0.00
2019-04-01T00:17:10.019Z,0.00
2019-04-01T00:18:10.000Z,0.00
2019-04-01T00:19:09.983Z,0.00
2019-04-01T00:20:09.977Z,0.00
2019-04-01T00:21:09.965Z,0.00
2019-04-01T00:22:09.976Z,0.00
2019-04-01T00:23:10.204Z,0.00
2019-04-01T00:24:09.970Z,0.00
2019-04-01T00:25:09.925Z,0.00
2019-04-01T00:26:09.919Z,0.00
2019-04-01T00:27:09.915Z,0.00
2019-04-01T00:28:09.890Z,0.00
2019-04-01T00:29:09.885Z,0.00
2019-04-01T00:30:09.868Z,0.00
2019-04-01T00:31:09.888Z,0.00
2019-04-01T00:32:09.861Z,0.00
2019-04-01T00:33:09.834Z,0.00
2019-04-01T00:34:09.825Z,0.00
2019-04-01T00:35:09.819Z,0.00
2019-04-01T00:36:09.811Z,0.00
2019-04-01T00:37:09.817Z,0.00
2019-04-01T00:38:09.787Z,0.00
2019-04-01T00:39:09.784Z,0.00
2019-04-01T00:40:09.764Z,0.00
2019-04-01T00:41:09.762Z,0.00
2019-04-01T00:42:09.755Z,0.00
2019-04-01T00:43:09.762Z,0.00
2019-04-01T00:44:09.724Z,0.00
2019-04-01T00:45:09.712Z,0.00
2019-04-01T00:46:09.700Z,0.00
2019-04-01T00:47:09.710Z,0.00
2019-04-01T00:48:09.680Z,0.00
2019-04-01T00:49:09.700Z,0.00
2019-04-01T00:50:09.660Z,0.00
2019-04-01T00:51:09.642Z,0.00
2019-04-01T00:52:09.632Z,0.00
2019-04-01T00:53:09.630Z,0.00
2019-04-01T00:54:09.610Z,0.00
2019-04-01T00:55:09.644Z,0.00
2019-04-01T00:56:09.600Z,0.00
2019-04-01T00:57:09.589Z,0.00
2019-04-01T00:58:09.582Z,0.00
2019-04-01T00:59:09.611Z,0.00
2019-04-01T01:00:09.552Z,0.00
2019-04-01T01:01:09.539Z,0.00
2019-04-01T01:02:09.532Z,0.00
2019-04-01T01:03:09.540Z,0.00
2019-04-01T01:04:09.507Z,0.00
2019-04-01T01:05:09.522Z,0.00
2019-04-01T01:06:09.497Z,0.00
2019-04-01T01:07:09.474Z,0.00
2019-04-01T01:08:09.482Z,0.00
2019-04-01T01:09:09.464Z,0.00
2019-04-01T01:10:09.442Z,0.00
2019-04-01T01:11:09.429Z,0.00
2019-04-01T01:12:09.420Z,0.00
2019-04-01T01:13:09.425Z,0.00
2019-04-01T01:14:09.407Z,0.00
2019-04-01T01:15:09.395Z,0.00
2019-04-01T01:16:09.430Z,0.00
2019-04-01T01:17:09.372Z,0.00
2019-04-01T01:18:09.375Z,0.00
2019-04-01T01:19:09.348Z,0.00
2019-04-01T01:20:09.344Z,0.00
2019-04-01T01:21:09.330Z,0.00
2019-04-01T01:22:09.331Z,0.00
2019-04-01T01:23:09.334Z,0.00
2019-04-01T01:24:09.300Z,0.00
2019-04-01T01:25:09.290Z,0.00
2019-04-01T01:26:09.281Z,0.00
2019-04-01T01:27:09.263Z,0.00
2019-04-01T01:28:09.255Z,0.00
2019-04-01T01:29:09.274Z,0.00
2019-04-01T01:30:09.226Z,0.00
2019-04-01T01:31:09.221Z,0.00
2019-04-01T01:32:09.213Z,0.00
2019-04-01T01:33:09.195Z,0.00
2019-04-01T01:34:09.205Z,0.00
2019-04-01T01:35:09.243Z,0.00
2019-04-01T01:36:09.173Z,0.00
2019-04-01T01:37:09.158Z,0.00
2019-04-01T01:38:09.151Z,0.00
2019-04-01T01:39:09.151Z,0.00
2019-04-01T01:40:09.121Z,0.00
2019-04-01T01:41:09.137Z,0.00
2019-04-01T01:42:09.103Z,0.00
2019-04-01T01:43:09.098Z,0.00
2019-04-01T01:44:09.102Z,0.00
2019-04-01T01:45:09.075Z,0.00
2019-04-01T01:46:09.061Z,0.00
2019-04-01T01:47:09.055Z,0.00
2019-04-01T01:48:09.045Z,0.00
2019-04-01T01:49:09.045Z,0.00
2019-04-01T01:50:09.043Z,0.00
2019-04-01T01:51:09.011Z,0.00
2019-04-01T01:52:09.001Z,0.00
2019-04-01T01:53:08.990Z,0.00
2019-04-01T01:54:08.989Z,0.00
2019-04-01T01:55:08.974Z,0.00
2019-04-01T01:56:09.006Z,0.00
2019-04-01T01:57:08.953Z,0.00
2019-04-01T01:58:08.934Z,0.00
2019-04-01T01:59:08.950Z,0.00
2019-04-01T02:00:08.919Z,0.00
2019-04-01T02:01:08.908Z,0.00
2019-04-01T02:02:08.900Z,0.00
2019-04-01T02:03:08.930Z,0.00
2019-04-01T02:04:08.871Z,0.00
2019-04-01T02:05:08.889Z,0.00
2019-04-01T02:06:08.848Z,0.00
2019-04-01T02:07:08.843Z,0.00
2019-04-01T02:08:08.828Z,0.00
2019-04-01T02:09:08.837Z,0.00
2019-04-01T02:10:08.826Z,0.00
2019-04-01T02:11:08.804Z,0.00
2019-04-01T02:12:08.790Z,0.00
2019-04-01T02:13:08.786Z,0.00
2019-04-01T02:14:08.770Z,0.00
2019-04-01T02:15:08.778Z,0.00
2019-04-01T02:16:08.750Z,0.00
2019-04-01T02:17:08.736Z,0.00
2019-04-01T02:18:08.771Z,0.00
2019-04-01T02:19:08.724Z,0.00
2019-04-01T02:20:08.717Z,0.00
2019-04-01T02:21:08.692Z,0.00
2019-04-01T02:22:08.723Z,0.00
2019-04-01T02:23:08.670Z,0.00
2019-04-01T02:24:08.673Z,0.00
2019-04-01T02:25:08.676Z,0.00
2019-04-01T02:26:08.644Z,0.00
2019-04-01T02:27:08.627Z,0.00
2019-04-01T02:28:08.642Z,0.00
2019-04-01T02:29:08.609Z,0.00
2019-04-01T02:30:08.621Z,0.00
2019-04-01T02:31:08.590Z,0.00
2019-04-01T02:32:08.666Z,0.00
2019-04-01T02:33:08.636Z,0.00
2019-04-01T02:34:08.554Z,0.00
2019-04-01T02:35:08.562Z,0.00
2019-04-01T02:36:08.539Z,0.00
2019-04-01T02:37:08.524Z,0.00
2019-04-01T02:38:08.512Z,0.00
2019-04-01T02:39:08.514Z,0.00
2019-04-01T02:40:08.516Z,0.00
2019-04-01T02:41:08.512Z,0.00
2019-04-01T02:42:08.474Z,0.00
2019-04-01T02:43:08.464Z,0.00
2019-04-01T02:44:08.460Z,0.00
2019-04-01T02:45:08.462Z,0.00
2019-04-01T02:46:08.435Z,0.00
2019-04-01T02:47:08.416Z,0.00
2019-04-01T02:48:08.416Z,0.00
2019-04-01T02:49:08.448Z,0.00
2019-04-01T02:50:08.431Z,0.00
2019-04-01T02:51:08.374Z,0.00
2019-04-01T02:52:08.374Z,0.00
2019-04-01T02:53:08.369Z,0.00
2019-04-01T02:54:08.350Z,0.00
2019-04-01T02:55:08.346Z,0.00
2019-04-01T02:56:08.390Z,0.00
2019-04-01T02:57:08.323Z,0.00
2019-04-01T02:58:08.305Z,0.00
2019-04-01T02:59:08.298Z,0.00
2019-04-01T03:00:08.297Z,0.00
2019-04-01T03:01:08.289Z,0.00
2019-04-01T03:02:08.268Z,0.00
2019-04-01T03:03:08.347Z,0.00
2019-04-01T03:04:08.248Z,0.00
2019-04-01T03:05:08.248Z,0.00
2019-04-01T03:06:08.244Z,0.00
2019-04-01T03:07:08.217Z,0.00
2019-04-01T03:08:08.201Z,0.00
2019-04-01T03:09:08.204Z,0.00
2019-04-01T03:10:08.184Z,0.00
2019-04-01T03:11:10.684Z,0.00
2019-04-01T03:12:08.168Z,0.00
2019-04-01T03:13:08.165Z,0.00
2019-04-01T03:14:08.148Z,0.00
2019-04-01T03:15:08.134Z,0.00
2019-04-01T03:16:08.142Z,0.00
2019-04-01T03:17:08.127Z,0.00
2019-04-01T03:18:08.102Z,0.00
2019-04-01T03:19:08.083Z,0.00
2019-04-01T03:20:08.084Z,0.00
2019-04-01T03:21:08.146Z,0.00
2019-04-01T03:22:08.059Z,0.00
2019-04-01T03:23:08.043Z,0.00
2019-04-01T03:24:08.042Z,0.00
2019-04-01T03:25:08.034Z,0.00
2019-04-01T03:26:08.039Z,0.00
2019-04-01T03:27:07.999Z,0.00
2019-04-01T03:28:07.993Z,0.00
2019-04-01T03:29:07.987Z,0.00
2019-04-01T03:30:08.002Z,0.00
2019-04-01T03:31:07.985Z,0.00
2019-04-01T03:32:07.953Z,0.00
2019-04-01T03:33:08.037Z,0.00
2019-04-01T03:34:07.929Z,0.00
2019-04-01T03:35:07.941Z,0.00
2019-04-01T03:36:07.951Z,0.00
2019-04-01T03:37:07.901Z,0.00
2019-04-01T03:38:07.896Z,0.00
2019-04-01T03:39:07.883Z,0.00
2019-04-01T03:40:07.912Z,0.00
2019-04-01T03:41:07.865Z,0.00
2019-04-01T03:42:07.867Z,0.00
2019-04-01T03:43:07.842Z,0.00
2019-04-01T03:44:07.880Z,0.00
2019-04-01T03:45:07.820Z,0.00
2019-04-01T03:46:07.816Z,0.00
2019-04-01T03:47:07.814Z,0.00
2019-04-01T03:48:07.789Z,0.00
2019-04-01T03:49:07.772Z,0.00
2019-04-01T03:50:07.775Z,0.00
2019-04-01T03:51:07.748Z,0.00
2019-04-01T03:52:10.283Z,0.00
2019-04-01T03:53:07.734Z,0.00
2019-04-01T03:54:07.728Z,0.00
2019-04-01T03:55:07.716Z,0.00
2019-04-01T03:56:07.707Z,0.00
2019-04-01T03:57:07.703Z,0.00
2019-04-01T03:58:07.719Z,0.00
2019-04-01T03:59:07.698Z,0.00
2019-04-01T04:00:07.655Z,0.00
2019-04-01T04:01:07.658Z,0.00
2019-04-01T04:02:07.699Z,0.00
2019-04-01T04:03:07.627Z,0.00
2019-04-01T04:04:07.619Z,0.00
2019-04-01T04:05:07.615Z,0.00
2019-04-01T04:06:07.614Z,0.00
2019-04-01T04:07:07.618Z,4.00
2019-04-01T04:08:07.576Z,0.00
2019-04-01T04:09:07.569Z,0.00
2019-04-01T04:10:07.566Z,4.00
2019-04-01T04:11:07.549Z,0.00
2019-04-01T04:12:07.545Z,4.00
2019-04-01T04:13:07.534Z,4.00
2019-04-01T04:14:07.583Z,8.00
2019-04-01T04:15:07.513Z,8.00
2019-04-01T04:16:07.498Z,4.00
2019-04-01T04:17:07.510Z,8.00
2019-04-01T04:18:07.473Z,12.00
2019-04-01T04:19:07.462Z,12.00
2019-04-01T04:20:07.492Z,16.00
2019-04-01T04:21:07.446Z,20.00
2019-04-01T04:22:07.451Z,20.00
2019-04-01T04:23:07.421Z,24.00
2019-04-01T04:24:07.427Z,32.00
2019-04-01T04:25:07.455Z,36.00
2019-04-01T04:26:07.392Z,44.00
2019-04-01T04:27:10.940Z,48.00
2019-04-01T04:28:07.365Z,56.00
2019-04-01T04:29:07.352Z,68.00
2019-04-01T04:30:07.373Z,76.00
2019-04-01T04:31:07.348Z,88.00
2019-04-01T04:32:07.338Z,100.00
2019-04-01T04:33:07.314Z,116.00
2019-04-01T04:34:07.311Z,128.00
2019-04-01T04:35:07.293Z,148.00
2019-04-01T04:36:07.291Z,164.00
2019-04-01T04:37:07.309Z,184.00
2019-04-01T04:38:07.258Z,204.00
2019-04-01T04:39:07.350Z,228.00
2019-04-01T04:40:07.244Z,252.00
2019-04-01T04:41:07.228Z,280.00
2019-04-01T04:42:07.216Z,308.00
2019-04-01T04:43:07.227Z,340.00
2019-04-01T04:44:07.213Z,368.00
2019-04-01T04:45:07.193Z,404.00
2019-04-01T04:46:07.244Z,436.00
2019-04-01T04:47:07.173Z,476.00
2019-04-01T04:48:07.184Z,516.00
2019-04-01T04:49:07.152Z,552.00
2019-04-01T04:50:07.142Z,596.00
2019-04-01T04:51:07.130Z,636.00
2019-04-01T04:52:07.135Z,680.00
2019-04-01T04:53:07.130Z,724.00
2019-04-01T04:54:07.101Z,768.00
2019-04-01T04:55:07.090Z,812.00
2019-04-01T04:56:07.070Z,860.00
2019-04-01T04:57:07.067Z,904.00
2019-04-01T04:58:07.073Z,956.00
2019-04-01T04:59:07.040Z,1004.00
2019-04-01T05:00:07.092Z,1052.00
2019-04-01T05:01:07.024Z,1100.00
2019-04-01T05:02:07.014Z,1152.00
2019-04-01T05:03:07.018Z,1196.00
2019-04-01T05:04:07.059Z,1256.00
2019-04-01T05:05:06.984Z,1304.00
2019-04-01T05:06:06.968Z,1356.00
2019-04-01T05:07:06.959Z,1408.00
2019-04-01T05:08:06.975Z,1456.00
2019-04-01T05:09:06.954Z,1504.00
2019-04-01T05:10:06.924Z,1552.00
2019-04-01T05:11:06.916Z,1600.00
2019-04-01T05:12:06.976Z,1644.00
2019-04-01T05:13:06.930Z,1688.00
2019-04-01T05:14:06.884Z,1736.00
2019-04-01T05:15:06.881Z,1784.00
2019-04-01T05:16:06.939Z,1836.00
2019-04-01T05:17:06.874Z,1888.00
2019-04-01T05:18:06.864Z,1940.00
2019-04-01T05:19:06.835Z,1984.00
2019-04-01T05:20:06.876Z,2024.00
2019-04-01T05:21:06.834Z,2064.00
2019-04-01T05:22:06.809Z,2112.00
2019-04-01T05:23:06.817Z,2156.00
2019-04-01T05:24:06.792Z,2196.00
2019-04-01T05:25:06.776Z,2248.00
2019-04-01T05:26:06.775Z,2292.00
2019-04-01T05:27:06.749Z,2340.00
2019-04-01T05:28:06.759Z,2380.00
2019-04-01T05:29:06.741Z,2424.00
2019-04-01T05:30:06.728Z,2464.00
2019-04-01T05:31:06.708Z,2500.00
2019-04-01T05:32:06.698Z,2536.00
2019-04-01T05:33:06.768Z,2580.00
2019-04-01T05:34:06.683Z,2616.00
2019-04-01T05:35:06.667Z,2656.00
2019-04-01T05:36:06.666Z,2684.00
2019-04-01T05:37:08.978Z,2732.00
2019-04-01T05:38:06.723Z,2776.00
2019-04-01T05:39:06.635Z,2808.00
2019-04-01T05:40:06.619Z,2844.00
2019-04-01T05:41:06.640Z,2884.00
2019-04-01T05:42:06.593Z,2916.00
2019-04-01T05:43:06.605Z,2952.00
2019-04-01T05:44:06.605Z,2992.00
2019-04-01T05:45:06.561Z,3032.00
2019-04-01T05:46:06.557Z,3056.00
2019-04-01T05:47:06.553Z,3080.00
2019-04-01T05:48:06.525Z,3124.00
2019-04-01T05:49:06.540Z,3164.00
2019-04-01T05:50:06.510Z,3188.00
2019-04-01T05:51:06.503Z,3220.00
2019-04-01T05:52:06.481Z,3264.00
2019-04-01T05:53:06.472Z,3296.00
2019-04-01T05:54:06.479Z,3336.00
2019-04-01T05:55:08.883Z,3368.00
2019-04-01T05:56:06.448Z,3404.00
2019-04-01T05:57:06.455Z,3440.00
2019-04-01T05:58:06.430Z,3472.00
2019-04-01T05:59:06.428Z,3508.00
2019-04-01T06:00:06.485Z,3540.00
2019-04-01T06:01:06.393Z,3576.00
2019-04-01T06:02:06.388Z,3616.00
2019-04-01T06:03:06.364Z,3712.00
2019-04-01T06:04:06.390Z,3716.00
2019-04-01T06:05:06.399Z,3836.00
2019-04-01T06:06:06.338Z,4064.00
2019-04-01T06:07:06.328Z,4252.00
2019-04-01T06:08:06.318Z,4124.00
2019-04-01T06:09:06.356Z,3968.00
2019-04-01T06:10:06.298Z,3944.00
2019-04-01T06:11:06.291Z,3980.00
2019-04-01T06:12:06.322Z,4032.00
2019-04-01T06:13:06.271Z,4084.00
2019-04-01T06:14:06.272Z,4164.00
2019-04-01T06:15:06.246Z,4248.00
2019-04-01T06:16:06.246Z,4320.00
2019-04-01T06:17:06.222Z,4344.00
2019-04-01T06:18:06.222Z,4408.00
2019-04-01T06:19:06.275Z,4452.00
2019-04-01T06:20:06.186Z,4492.00
2019-04-01T06:21:06.196Z,4536.00
2019-04-01T06:22:06.168Z,4584.00
2019-04-01T06:23:06.156Z,4644.00
2019-04-01T06:24:06.162Z,4704.00
2019-04-01T06:25:06.141Z,4752.00
2019-04-01T06:26:06.134Z,4812.00
2019-04-01T06:27:06.123Z,4872.00
2019-04-01T06:28:06.101Z,4928.00
2019-04-01T06:29:06.116Z,4988.00
2019-04-01T06:30:06.082Z,5060.00
2019-04-01T06:31:06.078Z,5132.00
2019-04-01T06:32:06.077Z,5328.00
2019-04-01T06:33:06.131Z,10480.00
2019-04-01T06:34:06.038Z,18848.00
2019-04-01T06:35:06.078Z,22272.00
2019-04-01T06:36:06.020Z,24736.00
2019-04-01T06:37:06.006Z,27008.00
2019-04-01T06:38:06.000Z,26144.00
2019-04-01T06:39:05.991Z,24352.00
2019-04-01T06:40:06.042Z,24896.00
2019-04-01T06:41:05.978Z,26720.00
2019-04-01T06:42:07.312Z,26720.00
2019-04-01T06:43:05.943Z,26656.00
2019-04-01T06:44:05.965Z,27712.00
2019-04-01T06:45:05.939Z,28064.00
2019-04-01T06:46:05.914Z,27904.00
2019-04-01T06:47:05.905Z,28864.00
2019-04-01T06:48:05.891Z,29472.00
2019-04-01T06:49:05.924Z,29152.00
2019-04-01T06:50:05.903Z,29184.00
2019-04-01T06:51:05.857Z,29984.00
2019-04-01T06:52:05.847Z,29600.00
2019-04-01T06:53:05.842Z,29600.00
2019-04-01T06:54:05.837Z,31360.00
2019-04-01T06:55:05.834Z,32896.00
2019-04-01T06:56:05.834Z,31968.00
2019-04-01T06:57:05.791Z,30560.00
2019-04-01T06:58:05.995Z,31008.00
2019-04-01T06:59:05.777Z,32544.00
2019-04-01T07:00:05.788Z,33504.00
2019-04-01T07:01:05.769Z,35168.00
2019-04-01T07:02:05.796Z,35104.00
2019-04-01T07:03:05.731Z,35200.00
2019-04-01T07:04:05.721Z,35904.00
2019-04-01T07:05:05.719Z,36448.00
2019-04-01T07:06:05.693Z,37248.00
2019-04-01T07:07:18.370Z,39168.00
2019-04-01T07:08:06.681Z,39520.00
2019-04-01T07:09:05.677Z,39328.00
2019-04-01T07:10:05.687Z,40192.00
2019-04-01T07:11:05.654Z,41376.00
2019-04-01T07:12:05.629Z,42368.00
2019-04-01T07:13:05.623Z,42752.00
2019-04-01T07:14:05.607Z,41472.00
2019-04-01T07:15:05.621Z,40768.00
2019-04-01T07:16:15.350Z,41504.00
2019-04-01T07:17:06.628Z,42208.00
2019-04-01T07:18:05.569Z,42688.00
2019-04-01T07:19:05.569Z,44320.00
2019-04-01T07:20:08.545Z,47840.00
2019-04-01T07:21:05.546Z,50144.00
2019-04-01T07:22:05.522Z,49440.00
2019-04-01T07:23:05.514Z,46432.00
2019-04-01T07:24:05.508Z,43552.00
2019-04-01T07:25:05.497Z,42688.00
2019-04-01T07:26:05.488Z,43680.00
2019-04-01T07:27:08.040Z,44480.00
2019-04-01T07:28:05.526Z,45248.00
2019-04-01T07:29:05.451Z,46144.00
2019-04-01T07:30:05.514Z,48096.00
2019-04-01T07:31:05.440Z,48032.00
2019-04-01T07:32:05.418Z,46816.00
2019-04-01T07:33:05.419Z,46784.00
2019-04-01T07:34:05.386Z,48128.00
2019-04-01T07:35:05.396Z,48736.00
2019-04-01T07:36:05.390Z,48192.00
2019-04-01T07:37:05.354Z,48064.00
2019-04-01T07:38:05.372Z,46144.00
2019-04-01T07:39:05.336Z,44192.00
2019-04-01T07:40:05.339Z,44192.00
2019-04-01T07:41:05.362Z,46496.00
2019-04-01T07:42:05.304Z,50176.00
2019-04-01T07:43:05.294Z,51904.00
2019-04-01T07:44:05.291Z,51232.00
2019-04-01T07:45:05.268Z,49440.00
2019-04-01T07:46:08.111Z,48992.00
2019-04-01T07:47:05.266Z,51648.00
2019-04-01T07:48:05.264Z,56192.00
2019-04-01T07:49:05.229Z,57344.00
2019-04-01T07:50:05.212Z,54400.00
2019-04-01T07:51:07.033Z,50976.00
2019-04-01T07:52:05.190Z,50560.00
2019-04-01T07:53:05.182Z,52576.00
2019-04-01T07:54:05.182Z,54400.00
2019-04-01T07:55:05.172Z,54560.00
2019-04-01T07:56:05.187Z,52288.00
2019-04-01T07:57:05.144Z,50912.00
2019-04-01T07:58:05.147Z,52192.00
2019-04-01T07:59:05.142Z,54688.00
2019-04-01T08:00:05.112Z,57216.00
2019-04-01T08:01:05.099Z,57472.00
2019-04-01T08:02:05.109Z,54944.00
2019-04-01T08:03:05.116Z,53216.00
2019-04-01T08:04:05.078Z,53984.00
2019-04-01T08:05:05.052Z,56992.00
2019-04-01T08:06:05.045Z,59456.00
2019-04-01T08:07:05.046Z,58944.00
2019-04-01T08:08:05.023Z,57152.00
2019-04-01T08:09:05.024Z,57664.00
2019-04-01T08:10:05.075Z,61088.00
2019-04-01T08:11:05.002Z,61504.00
2019-04-01T08:12:04.996Z,42304.00
2019-04-01T08:13:04.969Z,28288.00
2019-04-01T08:14:04.964Z,30560.00
2019-04-01T08:15:04.989Z,45216.00
2019-04-01T08:16:04.968Z,44992.00
2019-04-01T08:17:04.953Z,46464.00
2019-04-01T08:18:04.924Z,35776.00
2019-04-01T08:19:04.909Z,38560.00
2019-04-01T08:20:04.902Z,35072.00
2019-04-01T08:21:04.887Z,32384.00
2019-04-01T08:22:04.891Z,15904.00
2019-04-01T08:23:04.896Z,34752.00
2019-04-01T08:24:04.853Z,41056.00
2019-04-01T08:25:04.914Z,42976.00
2019-04-01T08:26:04.831Z,39008.00
2019-04-01T08:27:07.331Z,37344.00
2019-04-01T08:28:04.827Z,48704.00
2019-04-01T08:29:04.819Z,54112.00
2019-04-01T08:30:04.804Z,45184.00
2019-04-01T08:31:04.797Z,25312.00
2019-04-01T08:32:04.785Z,31584.00
2019-04-01T08:33:04.759Z,35200.00
2019-04-01T08:34:04.749Z,25216.00
2019-04-01T08:35:04.733Z,24960.00
2019-04-01T08:36:04.738Z,31136.00
2019-04-01T08:37:04.747Z,44608.00
2019-04-01T08:38:04.719Z,41472.00
2019-04-01T08:39:04.749Z,33760.00
2019-04-01T08:40:04.683Z,7820.00
2019-04-01T08:41:04.675Z,7024.00
2019-04-01T08:42:04.681Z,7064.00
2019-04-01T08:43:04.645Z,7048.00
2019-04-01T08:44:04.685Z,7120.00
2019-04-01T08:45:04.626Z,9388.00
2019-04-01T08:46:04.614Z,33280.00
2019-04-01T08:47:04.621Z,57408.00
2019-04-01T08:48:04.594Z,54496.00
2019-04-01T08:49:07.789Z,48576.00
2019-04-01T08:50:04.570Z,43392.00
2019-04-01T08:51:04.567Z,33792.00
2019-04-01T08:52:04.584Z,35936.00
2019-04-01T08:53:04.538Z,43968.00
2019-04-01T08:54:04.545Z,44672.00
2019-04-01T08:55:04.511Z,40000.00
2019-04-01T08:56:04.504Z,49696.00
2019-04-01T08:57:04.528Z,34656.00
2019-04-01T08:58:04.484Z,57408.00
2019-04-01T08:59:04.469Z,59680.00
2019-04-01T09:00:04.464Z,25888.00
2019-04-01T09:01:04.448Z,29312.00
2019-04-01T09:02:17.002Z,38656.00
2019-04-01T09:03:05.426Z,28096.00
2019-04-01T09:04:04.415Z,16512.00
2019-04-01T09:05:04.405Z,8608.00
2019-04-01T09:06:04.546Z,7224.00
2019-04-01T09:07:04.398Z,7872.00
2019-04-01T09:08:04.401Z,38368.00
2019-04-01T09:09:04.375Z,55456.00
2019-04-01T09:10:04.378Z,55904.00
2019-04-01T09:11:04.338Z,58784.00
2019-04-01T09:12:04.340Z,64512.00
2019-04-01T09:13:04.316Z,72992.00
2019-04-01T09:14:04.314Z,68832.00
2019-04-01T09:15:04.302Z,65472.00
2019-04-01T09:16:04.294Z,71808.00
2019-04-01T09:17:04.302Z,52320.00
2019-04-01T09:18:04.277Z,60064.00
2019-04-01T09:19:04.254Z,50720.00
2019-04-01T09:20:04.251Z,42912.00
2019-04-01T09:21:04.230Z,40032.00
2019-04-01T09:22:04.234Z,48384.00
2019-04-01T09:23:04.208Z,36672.00
2019-04-01T09:24:04.217Z,45760.00
2019-04-01T09:25:04.191Z,52000.00
2019-04-01T09:26:04.180Z,31104.00
2019-04-01T09:27:04.183Z,28480.00
2019-04-01T09:28:04.152Z,18368.00
2019-04-01T09:29:04.142Z,7176.00
2019-04-01T09:30:04.156Z,19648.00
2019-04-01T09:31:04.117Z,32960.00
2019-04-01T09:32:04.132Z,22048.00
2019-04-01T09:33:04.095Z,20640.00
2019-04-01T09:34:04.086Z,24416.00
2019-04-01T09:35:04.077Z,45248.00
2019-04-01T09:36:04.088Z,27904.00
2019-04-01T09:37:04.065Z,42112.00
2019-04-01T09:38:04.082Z,19744.00
2019-04-01T09:39:04.057Z,8340.00
2019-04-01T09:40:04.023Z,17056.00
2019-04-01T09:41:04.012Z,29312.00
2019-04-01T09:42:04.010Z,21280.00
2019-04-01T09:43:04.019Z,13708.00
2019-04-01T09:44:03.981Z,46272.00
2019-04-01T09:45:03.980Z,42144.00
2019-04-01T09:46:03.977Z,49728.00
2019-04-01T09:47:03.950Z,18432.00
2019-04-01T09:48:03.954Z,39520.00
2019-04-01T09:49:03.923Z,37856.00
2019-04-01T09:50:03.925Z,32192.00
2019-04-01T09:51:03.938Z,33216.00
2019-04-01T09:52:04.122Z,16672.00
2019-04-01T09:53:03.904Z,12000.00
2019-04-01T09:54:03.873Z,11048.00
2019-04-01T09:55:06.111Z,7696.00
2019-04-01T09:56:03.852Z,23904.00
2019-04-01T09:57:16.740Z,7504.00
2019-04-01T09:58:04.868Z,7892.00
2019-04-01T09:59:03.820Z,47904.00
2019-04-01T10:00:03.809Z,7232.00
2019-04-01T10:01:03.793Z,24224.00
2019-04-01T10:02:03.783Z,58624.00
2019-04-01T10:03:03.787Z,54880.00
2019-04-01T10:04:03.785Z,27552.00
2019-04-01T10:05:03.751Z,26560.00
2019-04-01T10:06:03.741Z,40608.00
2019-04-01T10:07:03.726Z,26656.00
2019-04-01T10:08:03.733Z,45920.00
2019-04-01T10:09:03.710Z,61120.00
2019-04-01T10:10:03.705Z,47328.00
2019-04-01T10:11:03.709Z,55584.00
2019-04-01T10:12:03.675Z,50432.00
2019-04-01T10:13:03.709Z,45504.00
2019-04-01T10:14:03.652Z,40352.00
2019-04-01T10:15:03.642Z,34848.00
2019-04-01T10:16:03.630Z,53376.00
2019-04-01T10:17:03.636Z,44320.00
2019-04-01T10:18:03.628Z,38688.00
2019-04-01T10:19:03.602Z,56736.00
2019-04-01T10:20:03.589Z,32160.00
2019-04-01T10:21:03.583Z,85344.00
2019-04-01T10:22:03.562Z,49984.00
2019-04-01T10:23:03.563Z,99872.00
2019-04-01T10:24:03.544Z,96288.00
2019-04-01T10:25:03.566Z,13600.00
2019-04-01T10:26:03.519Z,55168.00
2019-04-01T10:27:03.511Z,55168.00
2019-04-01T10:28:03.508Z,48704.00
2019-04-01T10:29:03.485Z,46368.00
2019-04-01T10:30:03.478Z,27840.00
2019-04-01T10:31:03.490Z,11604.00
2019-04-01T10:32:03.469Z,31008.00
2019-04-01T10:33:03.470Z,57568.00
2019-04-01T10:34:03.438Z,50144.00
2019-04-01T10:35:03.428Z,52352.00
2019-04-01T10:36:03.418Z,65088.00
2019-04-01T10:37:03.408Z,70592.00
2019-04-01T10:38:03.446Z,82048.00
2019-04-01T10:39:03.410Z,80992.00
2019-04-01T10:40:03.371Z,84800.00
2019-04-01T10:41:03.357Z,87808.00
2019-04-01T10:42:03.345Z,87872.00
2019-04-01T10:43:03.336Z,90144.00
2019-04-01T10:44:04.978Z,77952.00
2019-04-01T10:45:03.324Z,72448.00
2019-04-01T10:46:03.311Z,67392.00
2019-04-01T10:47:03.336Z,55808.00
2019-04-01T10:48:03.323Z,68704.00
2019-04-01T10:49:03.334Z,67456.00
2019-04-01T10:50:03.354Z,49248.00
2019-04-01T10:51:03.436Z,38752.00
2019-04-01T10:52:03.242Z,36512.00
2019-04-01T10:53:03.237Z,35040.00
2019-04-01T10:54:03.324Z,34560.00
2019-04-01T10:55:03.262Z,55424.00
2019-04-01T10:56:03.287Z,53120.00
2019-04-01T10:57:03.264Z,62912.00
2019-04-01T10:58:03.179Z,55328.00
2019-04-01T10:59:03.197Z,47008.00
2019-04-01T11:00:03.195Z,46432.00
2019-04-01T11:01:03.169Z,46208.00
2019-04-01T11:02:03.131Z,39488.00
2019-04-01T11:03:05.995Z,35328.00
2019-04-01T11:04:03.221Z,59616.00
2019-04-01T11:05:03.117Z,36672.00
2019-04-01T11:06:03.094Z,33696.00
2019-04-01T11:07:03.114Z,30368.00
2019-04-01T11:08:03.225Z,10608.00
2019-04-01T11:09:03.090Z,16256.00
2019-04-01T11:10:03.048Z,28352.00
2019-04-01T11:11:03.031Z,36480.00
2019-04-01T11:12:03.027Z,47296.00
2019-04-01T11:13:03.018Z,40768.00
2019-04-01T11:14:03.015Z,85024.00
2019-04-01T11:15:02.993Z,53408.00
2019-04-01T11:16:02.983Z,20288.00
2019-04-01T11:17:04.481Z,10704.00
2019-04-01T11:18:02.961Z,42304.00
2019-04-01T11:19:02.968Z,71104.00
2019-04-01T11:20:02.934Z,95104.00
2019-04-01T11:21:02.931Z,94656.00
2019-04-01T11:22:03.818Z,94304.00
2019-04-01T11:23:04.818Z,93312.00
2019-04-01T11:24:02.915Z,94144.00
2019-04-01T11:25:02.901Z,93184.00
2019-04-01T11:26:02.887Z,92736.00
2019-04-01T11:27:02.866Z,85952.00
2019-04-01T11:28:02.870Z,52704.00
2019-04-01T11:29:02.857Z,32224.00
2019-04-01T11:30:02.850Z,30016.00
2019-04-01T11:31:02.854Z,53280.00
2019-04-01T11:32:02.823Z,57632.00
2019-04-01T11:33:02.843Z,46912.00
2019-04-01T11:34:02.864Z,23776.00
2019-04-01T11:35:02.789Z,25952.00
2019-04-01T11:36:02.759Z,37408.00
2019-04-01T11:37:02.798Z,50368.00
2019-04-01T11:38:02.759Z,56288.00
2019-04-01T11:39:02.757Z,49536.00
2019-04-01T11:40:02.759Z,53856.00
2019-04-01T11:41:02.705Z,50304.00
2019-04-01T11:42:02.719Z,60416.00
2019-04-01T11:43:04.977Z,77184.00
2019-04-01T11:44:02.737Z,68256.00
2019-04-01T11:45:05.606Z,76832.00
2019-04-01T11:46:02.659Z,73728.00
2019-04-01T11:47:02.704Z,70304.00
2019-04-01T11:48:02.636Z,65088.00
2019-04-01T11:49:02.661Z,48544.00
2019-04-01T11:50:02.677Z,50400.00
2019-04-01T11:51:02.608Z,48544.00
2019-04-01T11:52:02.644Z,60896.00
2019-04-01T11:53:02.580Z,85120.00
2019-04-01T11:54:02.584Z,86688.00
2019-04-01T11:55:06.143Z,85152.00
2019-04-01T11:56:02.543Z,86784.00
2019-04-01T11:57:02.584Z,87552.00
2019-04-01T11:58:02.520Z,89760.00
2019-04-01T11:59:02.532Z,92864.00
2019-04-01T12:00:02.522Z,92800.00
2019-04-01T12:01:02.494Z,87968.00
2019-04-01T12:02:02.478Z,82624.00
2019-04-01T12:03:02.468Z,77312.00
2019-04-01T12:04:02.471Z,79488.00
2019-04-01T12:05:02.461Z,86624.00
2019-04-01T12:06:02.450Z,90592.00
2019-04-01T12:07:02.426Z,89408.00
2019-04-01T12:08:02.443Z,81312.00
2019-04-01T12:09:02.434Z,74464.00
2019-04-01T12:10:02.401Z,76096.00
2019-04-01T12:11:02.384Z,86432.00
2019-04-01T12:12:03.240Z,93088.00
2019-04-01T12:13:02.374Z,87040.00
2019-04-01T12:14:05.147Z,75776.00
2019-04-01T12:15:02.344Z,67776.00
2019-04-01T12:16:02.340Z,77696.00
2019-04-01T12:17:02.330Z,81312.00
2019-04-01T12:18:02.310Z,83168.00
2019-04-01T12:19:02.314Z,80320.00
2019-04-01T12:20:02.286Z,75392.00